sensor_id;sensor_type;location;lat;lon;timestamp;pressure;altitude;pressure_sealevel;temperature;humidity
76998;BME280;65930;48.874;10.734;2023-04-24T00:00:24;95062.25;;;10.45;84.39
76998;BME280;65930;48.874;10.734;2023-04-24T00:02:52;95072.50;;;10.48;83.70
76998;BME280;65930;48.874;10.734;2023-04-24T00:05:24;95070.22;;;10.43;83.41
76998;BME280;65930;48.874;10.734;2023-04-24T00:07:55;95055.09;;;10.48;83.50
76998;BME280;65930;48.874;10.734;2023-04-24T00:10:24;95050.44;;;10.45;nan
76998;BME280;65930;48.874;10.734;2023-04-24T00:12:52;95037.34;;;10.45;84.00
76998;BME280;65930;48.874;10.734;2023-04-24T00:15:20;95054.06;;;10.62;83.06
76998;BME280;65930;48.874;10.734;2023-04-24T00:17:48;95054.44;;;10.64;83.64
76998;BME280;65930;48.874;10.734;2023-04-24T00:20:16;95048.88;;;10.64;83.84
76998;BME280;65930;48.874;10.734;2023-04-24T00:22:45;95053.63;;;10.63;84.22
76998;BME280;65930;48.874;10.734;2023-04-24T00:25:13;95059.59;;;10.62;84.61
76998;BME280;65930;48.874;10.734;2023-04-24T00:27:42;95064.75;;;10.59;84.66
76998;BME280;65930;48.874;10.734;2023-04-24T00:30:10;95068.38;;;10.56;85.02
76998;BME280;65930;48.874;10.734;2023-04-24T00:32:38;95064.53;;;10.50;85.22
76998;BME280;65930;48.874;10.734;2023-04-24T00:35:07;95068.66;;;10.42;85.39
76998;BME280;65930;48.874;10.734;2023-04-24T00:37:34;95068.78;;;10.35;85.64
76998;BME280;65930;48.874;10.734;2023-04-24T00:40:03;95071.91;;;10.37;85.07
76998;BME280;65930;48.874;10.734;2023-04-24T00:42:32;95066.38;;;10.37;84.95
76998;BME280;65930;48.874;10.734;2023-04-24T00:45:02;95064.09;;;10.32;85.70
76998;BME280;65930;48.874;10.734;2023-04-24T00:47:32;95065.97;;;10.39;85.79
76998;BME280;65930;48.874;10.734;2023-04-24T00:50:02;95060.13;;;10.33;86.12
76998;BME280;65930;48.874;10.734;2023-04-24T00:52:30;95063.84;;;10.23;86.69
76998;BME280;65930;48.874;10.734;2023-04-24T00:54:58;95071.66;;;10.28;86.84
76998;BME280;65930;48.874;10.734;2023-04-24T00:57:27;95072.03;;;10.30;86.73
76998;BME280;65930;48.874;10.734;2023-04-24T00:59:55;95072.75;;;10.34;87.06
76998;BME280;65930;48.874;10.734;2023-04-24T01:02:24;95068.78;;;10.35;86.96
76998;BME280;65930;48.874;10.734;2023-04-24T01:04:57;95069.56;;;10.36;86.99
76998;BME280;65930;48.874;10.734;2023-04-24T01:07:28;95057.34;;;10.33;87.29
76998;BME280;65930;48.874;10.734;2023-04-24T01:09:57;95067.28;;;10.31;87.14
76998;BME280;65930;48.874;10.734;2023-04-24T01:12:28;95065.66;;;10.33;87.60
76998;BME280;65930;48.874;10.734;2023-04-24T01:14:56;95071.38;;;10.23;87.35
76998;BME280;65930;48.874;10.734;2023-04-24T01:17:26;95060.47;;;10.12;87.78
76998;BME280;65930;48.874;10.734;2023-04-24T01:19:54;95052.59;;;10.10;87.07
76998;BME280;65930;48.874;10.734;2023-04-24T01:22:26;95047.13;;;10.07;86.92
76998;BME280;65930;48.874;10.734;2023-04-24T01:24:54;95047.13;;;10.07;87.35
76998;BME280;65930;48.874;10.734;2023-04-24T01:27:22;95046.25;;;10.10;86.74
76998;BME280;65930;48.874;10.734;2023-04-24T01:29:50;95044.69;;;10.09;86.52
76998;BME280;65930;48.874;10.734;2023-04-24T01:32:19;95043.38;;;9.94;87.42
76998;BME280;65930;48.874;10.734;2023-04-24T01:34:50;95045.47;;;9.86;87.43
76998;BME280;65930;48.874;10.734;2023-04-24T01:37:18;95031.56;;;9.90;86.46
76998;BME280;65930;48.874;10.734;2023-04-24T01:39:48;95018.59;;;9.87;86.99
76998;BME280;65930;48.874;10.734;2023-04-24T01:42:16;95033.28;;;9.84;86.71
76998;BME280;65930;48.874;10.734;2023-04-24T01:44:44;95027.75;;;9.84;87.24
76998;BME280;65930;48.874;10.734;2023-04-24T01:47:13;95032.50;;;9.83;87.18
76998;BME280;65930;48.874;10.734;2023-04-24T01:49:41;95031.94;;;9.92;87.14
76998;BME280;65930;48.874;10.734;2023-04-24T01:52:12;95029.00;;;9.79;86.80
76998;BME280;65930;48.874;10.734;2023-04-24T01:54:40;95028.63;;;9.77;87.45
76998;BME280;65930;48.874;10.734;2023-04-24T01:57:09;95025.31;;;9.86;86.75
76998;BME280;65930;48.874;10.734;2023-04-24T01:59:37;95021.44;;;9.83;86.77
76998;BME280;65930;48.874;10.734;2023-04-24T02:02:06;95018.72;;;9.80;86.97
76998;BME280;65930;48.874;10.734;2023-04-24T02:04:34;95019.22;;;9.75;87.12
76998;BME280;65930;48.874;10.734;2023-04-24T02:07:01;95015.91;;;9.83;86.97
76998;BME280;65930;48.874;10.734;2023-04-24T02:09:29;95012.59;;;9.92;86.57
76998;BME280;65930;48.874;10.734;2023-04-24T02:11:57;95016.47;;;9.94;86.25
76998;BME280;65930;48.874;10.734;2023-04-24T02:14:26;95009.41;;;9.93;85.71
76998;BME280;65930;48.874;10.734;2023-04-24T02:16:54;95017.28;;;9.95;85.64
76998;BME280;65930;48.874;10.734;2023-04-24T02:19:22;95011.97;;;9.81;86.38
76998;BME280;65930;48.874;10.734;2023-04-24T02:21:51;95010.38;;;9.83;86.25
76998;BME280;65930;48.874;10.734;2023-04-24T02:24:19;95002.31;;;9.92;86.20
76998;BME280;65930;48.874;10.734;2023-04-24T02:26:47;95013.31;;;9.96;85.75
76998;BME280;65930;48.874;10.734;2023-04-24T02:29:15;95011.25;;;10.00;85.43
76998;BME280;65930;48.874;10.734;2023-04-24T02:31:44;95010.91;;;9.98;85.46
76998;BME280;65930;48.874;10.734;2023-04-24T02:34:12;95012.19;;;9.93;85.66
76998;BME280;65930;48.874;10.734;2023-04-24T02:36:40;95010.31;;;9.87;85.60
76998;BME280;65930;48.874;10.734;2023-04-24T02:39:07;95017.88;;;9.83;86.18
76998;BME280;65930;48.874;10.734;2023-04-24T02:41:35;95025.22;;;9.93;86.00
76998;BME280;65930;48.874;10.734;2023-04-24T02:44:03;95019.78;;;9.86;86.48
76998;BME280;65930;48.874;10.734;2023-04-24T02:46:31;95023.19;;;9.97;85.71
76998;BME280;65930;48.874;10.734;2023-04-24T02:49:03;95020.59;;;9.86;85.91
76998;BME280;65930;48.874;10.734;2023-04-24T02:51:30;95029.28;;;9.85;86.30
76998;BME280;65930;48.874;10.734;2023-04-24T02:53:58;95018.53;;;9.67;86.78
76998;BME280;65930;48.874;10.734;2023-04-24T02:56:26;95003.66;;;9.57;86.98
76998;BME280;65930;48.874;10.734;2023-04-24T02:58:54;95017.38;;;9.64;87.32
76998;BME280;65930;48.874;10.734;2023-04-24T03:01:22;95017.97;;;9.52;87.44
76998;BME280;65930;48.874;10.734;2023-04-24T03:03:50;95016.09;;;9.46;88.14
76998;BME280;65930;48.874;10.734;2023-04-24T03:06:19;95024.47;;;9.42;87.74
76998;BME280;65930;48.874;10.734;2023-04-24T03:08:48;95016.97;;;9.39;88.15
76998;BME280;65930;48.874;10.734;2023-04-24T03:11:15;95009.53;;;9.36;88.09
76998;BME280;65930;48.874;10.734;2023-04-24T03:13:43;95021.91;;;9.28;88.36
76998;BME280;65930;48.874;10.734;2023-04-24T03:16:11;95009.94;;;9.35;88.30
76998;BME280;65930;48.874;10.734;2023-04-24T03:18:39;95015.16;;;9.29;88.22
76998;BME280;65930;48.874;10.734;2023-04-24T03:21:07;95014.66;;;9.38;88.23
76998;BME280;65930;48.874;10.734;2023-04-24T03:23:36;95001.97;;;9.40;88.10
76998;BME280;65930;48.874;10.734;2023-04-24T03:26:10;95003.22;;;9.36;88.30
76998;BME280;65930;48.874;10.734;2023-04-24T03:28:39;95004.06;;;9.33;88.25
76998;BME280;65930;48.874;10.734;2023-04-24T03:31:07;95006.31;;;9.41;87.82
76998;BME280;65930;48.874;10.734;2023-04-24T03:33:35;94997.56;;;9.43;87.40
76998;BME280;65930;48.874;10.734;2023-04-24T03:36:04;94995.50;;;9.50;87.11
76998;BME280;65930;48.874;10.734;2023-04-24T03:38:32;94999.94;;;9.44;87.28
76998;BME280;65930;48.874;10.734;2023-04-24T03:41:01;95008.69;;;9.39;87.46
76998;BME280;65930;48.874;10.734;2023-04-24T03:43:29;95001.97;;;9.40;87.41
76998;BME280;65930;48.874;10.734;2023-04-24T03:46:00;95001.03;;;9.50;86.92
76998;BME280;65930;48.874;10.734;2023-04-24T03:48:27;95006.09;;;9.55;87.09
76998;BME280;65930;48.874;10.734;2023-04-24T03:50:55;95018.16;;;9.42;87.44
76998;BME280;65930;48.874;10.734;2023-04-24T03:53:23;95008.22;;;9.44;87.31
76998;BME280;65930;48.874;10.734;2023-04-24T03:55:53;95012.72;;;9.35;87.32
76998;BME280;65930;48.874;10.734;2023-04-24T03:58:22;95016.19;;;9.39;87.34
76998;BME280;65930;48.874;10.734;2023-04-24T04:00:50;95019.03;;;9.35;87.62
76998;BME280;65930;48.874;10.734;2023-04-24T04:03:18;95014.69;;;9.34;87.55
76998;BME280;65930;48.874;10.734;2023-04-24T04:05:47;95018.28;;;9.31;87.51
76998;BME280;65930;48.874;10.734;2023-04-24T04:08:16;95011.19;;;9.30;87.21
76998;BME280;65930;48.874;10.734;2023-04-24T04:10:44;95016.72;;;9.30;87.43
76998;BME280;65930;48.874;10.734;2023-04-24T04:13:11;95016.72;;;9.30;87.09
76998;BME280;65930;48.874;10.734;2023-04-24T04:15:41;95013.16;;;9.29;87.46
76998;BME280;65930;48.874;10.734;2023-04-24T04:18:08;95013.63;;;9.28;87.10
76998;BME280;65930;48.874;10.734;2023-04-24T04:20:36;95015.53;;;9.31;87.29
76998;BME280;65930;48.874;10.734;2023-04-24T04:23:04;95021.91;;;9.28;87.52
76998;BME280;65930;48.874;10.734;2023-04-24T04:25:35;95025.00;;;9.30;87.49
76998;BME280;65930;48.874;10.734;2023-04-24T04:28:03;95020.69;;;9.29;87.47
76998;BME280;65930;48.874;10.734;2023-04-24T04:30:31;95026.66;;;9.24;87.35
76998;BME280;65930;48.874;10.734;2023-04-24T04:33:00;95025.38;;;9.32;86.92
76998;BME280;65930;48.874;10.734;2023-04-24T04:35:29;95022.97;;;9.34;87.06
76998;BME280;65930;48.874;10.734;2023-04-24T04:37:56;95026.31;;;9.22;87.58
76998;BME280;65930;48.874;10.734;2023-04-24T04:40:25;95032.56;;;9.26;87.42
76998;BME280;65930;48.874;10.734;2023-04-24T04:42:54;95017.63;;;9.23;87.87
76998;BME280;65930;48.874;10.734;2023-04-24T04:45:22;95021.91;;;9.28;87.62
76998;BME280;65930;48.874;10.734;2023-04-24T04:47:50;95026.66;;;9.24;88.34
76998;BME280;65930;48.874;10.734;2023-04-24T04:50:20;95025.13;;;9.23;87.78
76998;BME280;65930;48.874;10.734;2023-04-24T04:52:49;95035.41;;;9.22;88.13
76998;BME280;65930;48.874;10.734;2023-04-24T04:55:17;95031.47;;;9.20;87.88
76998;BME280;65930;48.874;10.734;2023-04-24T04:57:46;95041.72;;;9.23;87.83
76998;BME280;65930;48.874;10.734;2023-04-24T05:00:14;95041.25;;;9.28;87.64
76998;BME280;65930;48.874;10.734;2023-04-24T05:02:42;95043.63;;;9.26;87.58
76998;BME280;65930;48.874;10.734;2023-04-24T05:05:11;95043.63;;;9.26;87.67
76998;BME280;65930;48.874;10.734;2023-04-24T05:07:40;95048.38;;;9.25;87.84
76998;BME280;65930;48.874;10.734;2023-04-24T05:10:08;95050.00;;;9.23;88.44
76998;BME280;65930;48.874;10.734;2023-04-24T05:12:37;95049.09;;;9.29;87.66
76998;BME280;65930;48.874;10.734;2023-04-24T05:15:05;95051.53;;;9.24;88.11
76998;BME280;65930;48.874;10.734;2023-04-24T05:17:33;95050.00;;;9.23;88.17
76998;BME280;65930;48.874;10.734;2023-04-24T05:20:02;95057.03;;;9.27;87.78
76998;BME280;65930;48.874;10.734;2023-04-24T05:22:31;95059.38;;;9.29;87.34
76998;BME280;65930;48.874;10.734;2023-04-24T05:25:01;95056.13;;;9.34;87.93
76998;BME280;65930;48.874;10.734;2023-04-24T05:27:29;95064.81;;;9.36;87.78
76998;BME280;65930;48.874;10.734;2023-04-24T05:29:57;95068.91;;;9.24;87.53
76998;BME280;65930;48.874;10.734;2023-04-24T05:32:25;95058.63;;;9.25;87.95
76998;BME280;65930;48.874;10.734;2023-04-24T05:34:53;95077.25;;;9.21;88.16
76998;BME280;65930;48.874;10.734;2023-04-24T05:37:21;95071.66;;;9.24;87.87
76998;BME280;65930;48.874;10.734;2023-04-24T05:39:49;95072.03;;;9.26;87.92
76998;BME280;65930;48.874;10.734;2023-04-24T05:42:18;95078.72;;;9.29;87.98
76998;BME280;65930;48.874;10.734;2023-04-24T05:44:46;95072.00;;;9.30;87.59
76998;BME280;65930;48.874;10.734;2023-04-24T05:47:23;95076.72;;;9.33;87.79
76998;BME280;65930;48.874;10.734;2023-04-24T05:49:55;95076.66;;;9.37;88.04
76998;BME280;65930;48.874;10.734;2023-04-24T05:52:23;95082.25;;;9.29;87.72
76998;BME280;65930;48.874;10.734;2023-04-24T05:54:51;95082.66;;;9.32;87.77
76998;BME280;65930;48.874;10.734;2023-04-24T05:57:21;95083.75;;;9.38;87.37
76998;BME280;65930;48.874;10.734;2023-04-24T05:59:48;95093.13;;;9.44;87.53
76998;BME280;65930;48.874;10.734;2023-04-24T06:02:19;95097.06;;;9.43;87.90
76998;BME280;65930;48.874;10.734;2023-04-24T06:04:47;95096.31;;;9.42;87.23
76998;BME280;65930;48.874;10.734;2023-04-24T06:07:16;95088.13;;;9.35;87.41
76998;BME280;65930;48.874;10.734;2023-04-24T06:09:43;95099.44;;;9.44;88.21
76998;BME280;65930;48.874;10.734;2023-04-24T06:12:11;95089.09;;;9.48;88.09
76998;BME280;65930;48.874;10.734;2023-04-24T06:14:40;95081.41;;;9.36;87.48
76998;BME280;65930;48.874;10.734;2023-04-24T06:17:08;95103.31;;;9.50;87.99
76998;BME280;65930;48.874;10.734;2023-04-24T06:19:36;95100.28;;;9.41;87.83
76998;BME280;65930;48.874;10.734;2023-04-24T06:22:04;95104.13;;;9.47;88.27
76998;BME280;65930;48.874;10.734;2023-04-24T06:24:35;95111.16;;;9.52;87.65
76998;BME280;65930;48.874;10.734;2023-04-24T06:27:03;95115.94;;;9.51;87.66
76998;BME280;65930;48.874;10.734;2023-04-24T06:29:31;95119.47;;;9.52;87.50
76998;BME280;65930;48.874;10.734;2023-04-24T06:32:00;95121.50;;;9.48;87.98
76998;BME280;65930;48.874;10.734;2023-04-24T06:34:28;95138.88;;;9.48;88.90
76998;BME280;65930;48.874;10.734;2023-04-24T06:36:57;95145.41;;;9.31;87.98
76998;BME280;65930;48.874;10.734;2023-04-24T06:39:25;95148.28;;;8.87;81.91
76998;BME280;65930;48.874;10.734;2023-04-24T06:41:52;95155.63;;;8.66;80.93
76998;BME280;65930;48.874;10.734;2023-04-24T06:44:20;95149.41;;;8.55;82.98
76998;BME280;65930;48.874;10.734;2023-04-24T06:46:48;95154.63;;;8.46;82.05
76998;BME280;65930;48.874;10.734;2023-04-24T06:49:17;95166.09;;;8.41;82.24
76998;BME280;65930;48.874;10.734;2023-04-24T06:51:46;95147.97;;;8.40;81.41
76998;BME280;65930;48.874;10.734;2023-04-24T06:54:14;95152.00;;;8.32;80.85
76998;BME280;65930;48.874;10.734;2023-04-24T06:56:42;95144.81;;;8.42;81.62
76998;BME280;65930;48.874;10.734;2023-04-24T06:59:18;95150.63;;;8.51;82.06
76998;BME280;65930;48.874;10.734;2023-04-24T07:01:46;95160.09;;;8.53;81.51
76998;BME280;65930;48.874;10.734;2023-04-24T07:04:14;95162.41;;;8.58;80.63
76998;BME280;65930;48.874;10.734;2023-04-24T07:06:43;95162.84;;;8.53;80.41
76998;BME280;65930;48.874;10.734;2023-04-24T07:09:12;95161.94;;;8.63;81.61
76998;BME280;65930;48.874;10.734;2023-04-24T07:11:42;95162.97;;;8.80;80.44
76998;BME280;65930;48.874;10.734;2023-04-24T07:14:13;95166.09;;;8.86;79.05
76998;BME280;65930;48.874;10.734;2023-04-24T07:16:42;95171.22;;;8.83;77.05
76998;BME280;65930;48.874;10.734;2023-04-24T07:19:09;95172.00;;;8.84;77.84
76998;BME280;65930;48.874;10.734;2023-04-24T07:21:37;95185.03;;;8.83;77.88
76998;BME280;65930;48.874;10.734;2023-04-24T07:24:07;95183.91;;;8.77;78.32
76998;BME280;65930;48.874;10.734;2023-04-24T07:26:46;95180.00;;;8.75;78.90
76998;BME280;65930;48.874;10.734;2023-04-24T07:29:14;95168.06;;;8.85;78.81
76998;BME280;65930;48.874;10.734;2023-04-24T07:31:42;95163.47;;;8.71;77.61
76998;BME280;65930;48.874;10.734;2023-04-24T07:34:10;95168.16;;;8.74;79.05
76998;BME280;65930;48.874;10.734;2023-04-24T07:36:38;95171.31;;;8.73;79.74
76998;BME280;65930;48.874;10.734;2023-04-24T07:39:07;95170.09;;;8.77;79.94
76998;BME280;65930;48.874;10.734;2023-04-24T07:41:35;95176.00;;;8.79;81.34
76998;BME280;65930;48.874;10.734;2023-04-24T07:44:03;95190.91;;;8.89;82.33
76998;BME280;65930;48.874;10.734;2023-04-24T07:46:31;95190.66;;;8.73;81.85
76998;BME280;65930;48.874;10.734;2023-04-24T07:48:59;95192.88;;;8.89;81.89
76998;BME280;65930;48.874;10.734;2023-04-24T07:51:42;95190.06;;;8.92;82.55
76998;BME280;65930;48.874;10.734;2023-04-24T07:54:11;95187.63;;;8.98;81.92
76998;BME280;65930;48.874;10.734;2023-04-24T07:56:43;95186.50;;;8.95;81.83
76998;BME280;65930;48.874;10.734;2023-04-24T07:59:11;95186.63;;;9.18;82.39
76998;BME280;65930;48.874;10.734;2023-04-24T08:01:38;95189.13;;;9.06;81.17
76998;BME280;65930;48.874;10.734;2023-04-24T08:04:07;95197.75;;;9.11;80.96
76998;BME280;65930;48.874;10.734;2023-04-24T08:06:35;95186.84;;;8.97;80.45
76998;BME280;65930;48.874;10.734;2023-04-24T08:09:03;95199.31;;;9.12;81.19
76998;BME280;65930;48.874;10.734;2023-04-24T08:11:32;95183.97;;;9.08;81.39
76998;BME280;65930;48.874;10.734;2023-04-24T08:14:00;95201.53;;;9.24;82.13
76998;BME280;65930;48.874;10.734;2023-04-24T08:16:28;95203.53;;;9.24;81.21
76998;BME280;65930;48.874;10.734;2023-04-24T08:18:56;95213.09;;;9.16;81.82
76998;BME280;65930;48.874;10.734;2023-04-24T08:21:24;95210.28;;;9.19;81.89
76998;BME280;65930;48.874;10.734;2023-04-24T08:23:53;95196.72;;;9.32;80.76
76998;BME280;65930;48.874;10.734;2023-04-24T08:26:21;95205.38;;;9.38;81.30
76998;BME280;65930;48.874;10.734;2023-04-24T08:28:50;95206.34;;;9.54;79.69
76998;BME280;65930;48.874;10.734;2023-04-24T08:31:21;95208.25;;;9.57;78.86
76998;BME280;65930;48.874;10.734;2023-04-24T08:33:51;95212.13;;;9.63;80.12
76998;BME280;65930;48.874;10.734;2023-04-24T08:36:19;95204.44;;;9.48;79.59
76998;BME280;65930;48.874;10.734;2023-04-24T08:38:47;95215.31;;;9.62;78.88
76998;BME280;65930;48.874;10.734;2023-04-24T08:41:15;95214.84;;;9.67;79.37
76998;BME280;65930;48.874;10.734;2023-04-24T08:43:46;95213.47;;;9.52;78.17
76998;BME280;65930;48.874;10.734;2023-04-24T08:46:16;95211.00;;;9.61;78.71
76998;BME280;65930;48.874;10.734;2023-04-24T08:48:46;95209.66;;;9.72;78.78
76998;BME280;65930;48.874;10.734;2023-04-24T08:51:15;95212.09;;;9.67;78.42
76998;BME280;65930;48.874;10.734;2023-04-24T08:53:43;95211.41;;;9.59;76.26
76998;BME280;65930;48.874;10.734;2023-04-24T08:56:11;95212.88;;;9.67;76.82
76998;BME280;65930;48.874;10.734;2023-04-24T08:58:40;95214.34;;;9.76;74.15
76998;BME280;65930;48.874;10.734;2023-04-24T09:01:09;95205.47;;;9.61;73.90
76998;BME280;65930;48.874;10.734;2023-04-24T09:03:39;95209.47;;;9.87;74.45
76998;BME280;65930;48.874;10.734;2023-04-24T09:06:09;95217.81;;;10.10;72.46
76998;BME280;65930;48.874;10.734;2023-04-24T09:08:40;95196.94;;;10.32;71.41
76998;BME280;65930;48.874;10.734;2023-04-24T09:11:09;95202.13;;;10.30;71.01
76998;BME280;65930;48.874;10.734;2023-04-24T09:13:37;95200.59;;;10.52;70.88
76998;BME280;65930;48.874;10.734;2023-04-24T09:16:06;95203.59;;;10.38;70.79
76998;BME280;65930;48.874;10.734;2023-04-24T09:18:33;95193.19;;;10.19;70.79
76998;BME280;65930;48.874;10.734;2023-04-24T09:21:06;95200.97;;;10.01;70.99
76998;BME280;65930;48.874;10.734;2023-04-24T09:23:35;95201.81;;;9.98;72.55
76998;BME280;65930;48.874;10.734;2023-04-24T09:26:12;95205.56;;;9.84;72.64
76998;BME280;65930;48.874;10.734;2023-04-24T09:28:40;95202.47;;;9.79;72.90
76998;BME280;65930;48.874;10.734;2023-04-24T09:31:13;95213.16;;;9.77;75.45
76998;BME280;65930;48.874;10.734;2023-04-24T09:33:54;95224.78;;;9.64;76.45
76998;BME280;65930;48.874;10.734;2023-04-24T09:36:29;95260.75;;;9.27;78.39
76998;BME280;65930;48.874;10.734;2023-04-24T09:39:01;95273.13;;;8.09;82.18
76998;BME280;65930;48.874;10.734;2023-04-24T09:41:29;95261.06;;;7.88;83.29
76998;BME280;65930;48.874;10.734;2023-04-24T09:44:11;95248.84;;;7.86;82.53
76998;BME280;65930;48.874;10.734;2023-04-24T09:46:41;95262.94;;;7.98;83.09
76998;BME280;65930;48.874;10.734;2023-04-24T09:49:12;95246.25;;;8.30;84.21
76998;BME280;65930;48.874;10.734;2023-04-24T09:51:42;95249.72;;;8.38;80.81
76998;BME280;65930;48.874;10.734;2023-04-24T09:54:15;95241.31;;;8.52;79.93
76998;BME280;65930;48.874;10.734;2023-04-24T09:56:44;95241.66;;;8.61;77.74
76998;BME280;65930;48.874;10.734;2023-04-24T09:59:13;95245.47;;;8.74;79.34
76998;BME280;65930;48.874;10.734;2023-04-24T10:01:41;95246.84;;;8.97;81.74
76998;BME280;65930;48.874;10.734;2023-04-24T10:04:22;95245.47;;;9.15;80.87
76998;BME280;65930;48.874;10.734;2023-04-24T10:06:54;95231.94;;;9.58;78.05
76998;BME280;65930;48.874;10.734;2023-04-24T10:09:24;95236.63;;;9.65;75.31
76998;BME280;65930;48.874;10.734;2023-04-24T10:11:53;95225.72;;;9.51;76.05
76998;BME280;65930;48.874;10.734;2023-04-24T10:14:23;95222.97;;;9.51;76.84
76998;BME280;65930;48.874;10.734;2023-04-24T10:16:54;95228.84;;;9.56;75.09
76998;BME280;65930;48.874;10.734;2023-04-24T10:19:25;95235.88;;;9.61;77.67
76998;BME280;65930;48.874;10.734;2023-04-24T10:21:58;95256.47;;;9.56;74.69
76998;BME280;65930;48.874;10.734;2023-04-24T10:24:26;95251.03;;;9.49;70.70
76998;BME280;65930;48.874;10.734;2023-04-24T10:26:54;95261.34;;;9.45;70.26
76998;BME280;65930;48.874;10.734;2023-04-24T10:29:23;95245.41;;;9.56;69.20
76998;BME280;65930;48.874;10.734;2023-04-24T10:31:58;95235.72;;;9.75;68.87
76998;BME280;65930;48.874;10.734;2023-04-24T10:34:26;95250.34;;;10.02;68.07
76998;BME280;65930;48.874;10.734;2023-04-24T10:36:58;95257.53;;;10.53;67.23
76998;BME280;65930;48.874;10.734;2023-04-24T10:39:26;95242.75;;;10.87;62.92
76998;BME280;65930;48.874;10.734;2023-04-24T10:41:55;95244.41;;;11.27;63.19
76998;BME280;65930;48.874;10.734;2023-04-24T10:44:24;95247.66;;;11.22;61.79
76998;BME280;65930;48.874;10.734;2023-04-24T10:46:55;95255.41;;;11.31;58.51
76998;BME280;65930;48.874;10.734;2023-04-24T10:49:28;95257.16;;;11.64;59.77
76998;BME280;65930;48.874;10.734;2023-04-24T10:52:02;95244.22;;;11.97;58.68
76998;BME280;65930;48.874;10.734;2023-04-24T10:54:36;95240.94;;;12.02;57.22
76998;BME280;65930;48.874;10.734;2023-04-24T10:57:26;95246.06;;;11.64;59.28
76998;BME280;65930;48.874;10.734;2023-04-24T11:00:16;95255.97;;;11.22;62.91
76998;BME280;65930;48.874;10.734;2023-04-24T11:02:47;95259.91;;;11.01;62.10
76998;BME280;65930;48.874;10.734;2023-04-24T11:05:22;95272.06;;;10.84;60.95
76998;BME280;65930;48.874;10.734;2023-04-24T11:08:27;95262.63;;;10.82;62.00
76998;BME280;65930;48.874;10.734;2023-04-24T11:11:01;95272.06;;;10.61;61.07
76998;BME280;65930;48.874;10.734;2023-04-24T11:14:01;95271.16;;;10.68;60.95
76998;BME280;65930;48.874;10.734;2023-04-24T11:16:31;95281.78;;;10.46;62.29
76998;BME280;65930;48.874;10.734;2023-04-24T11:19:03;95284.06;;;10.51;61.96
76998;BME280;65930;48.874;10.734;2023-04-24T11:21:31;95293.53;;;10.53;62.66
76998;BME280;65930;48.874;10.734;2023-04-24T11:24:25;95296.56;;;10.63;63.47
76998;BME280;65930;48.874;10.734;2023-04-24T11:26:58;95306.94;;;10.55;61.50
76998;BME280;65930;48.874;10.734;2023-04-24T11:29:42;95298.75;;;10.75;61.27
76998;BME280;65930;48.874;10.734;2023-04-24T11:32:25;95299.31;;;10.89;60.42
76998;BME280;65930;48.874;10.734;2023-04-24T11:34:55;95291.31;;;11.18;60.38
76998;BME280;65930;48.874;10.734;2023-04-24T11:37:26;95300.47;;;11.58;59.00
76998;BME280;65930;48.874;10.734;2023-04-24T11:39:57;95287.69;;;11.64;58.11
76998;BME280;65930;48.874;10.734;2023-04-24T11:42:27;95301.63;;;11.61;56.95
76998;BME280;65930;48.874;10.734;2023-04-24T11:44:55;95302.25;;;11.68;57.36
76998;BME280;65930;48.874;10.734;2023-04-24T11:47:28;95299.59;;;11.84;55.45
76998;BME280;65930;48.874;10.734;2023-04-24T11:49:57;95308.63;;;12.08;57.35
76998;BME280;65930;48.874;10.734;2023-04-24T11:52:26;95307.19;;;11.80;56.13
76998;BME280;65930;48.874;10.734;2023-04-24T11:54:56;95299.59;;;11.41;57.21
76998;BME280;65930;48.874;10.734;2023-04-24T11:57:25;95298.50;;;11.35;57.55
76998;BME280;65930;48.874;10.734;2023-04-24T11:59:55;95308.94;;;11.28;56.16
76998;BME280;65930;48.874;10.734;2023-04-24T12:02:24;95309.13;;;10.94;55.71
76998;BME280;65930;48.874;10.734;2023-04-24T12:04:53;95303.72;;;10.87;56.45
76998;BME280;65930;48.874;10.734;2023-04-24T12:07:23;95310.34;;;10.66;55.62
76998;BME280;65930;48.874;10.734;2023-04-24T12:09:57;95318.75;;;10.86;55.51
76998;BME280;65930;48.874;10.734;2023-04-24T12:12:27;95329.41;;;10.87;54.75
76998;BME280;65930;48.874;10.734;2023-04-24T12:14:56;95318.13;;;10.75;54.99
76998;BME280;65930;48.874;10.734;2023-04-24T12:17:27;95323.88;;;10.60;54.56
76998;BME280;65930;48.874;10.734;2023-04-24T12:19:59;95332.19;;;10.60;54.24
76998;BME280;65930;48.874;10.734;2023-04-24T12:22:43;95336.19;;;10.83;55.33
76998;BME280;65930;48.874;10.734;2023-04-24T12:25:20;95349.00;;;11.00;54.70
76998;BME280;65930;48.874;10.734;2023-04-24T12:27:53;95335.41;;;11.09;54.15
76998;BME280;65930;48.874;10.734;2023-04-24T12:30:26;95344.66;;;10.99;52.90
76998;BME280;65930;48.874;10.734;2023-04-24T12:32:57;95347.69;;;11.08;54.33
76998;BME280;65930;48.874;10.734;2023-04-24T12:35:28;95344.03;;;10.88;55.61
76998;BME280;65930;48.874;10.734;2023-04-24T12:38:05;95349.13;;;10.66;56.73
76998;BME280;65930;48.874;10.734;2023-04-24T12:40:34;95351.84;;;10.43;57.52
76998;BME280;65930;48.874;10.734;2023-04-24T12:43:13;95356.91;;;10.48;58.07
76998;BME280;65930;48.874;10.734;2023-04-24T12:45:41;95346.88;;;10.57;58.39
76998;BME280;65930;48.874;10.734;2023-04-24T12:48:09;95356.38;;;10.56;56.36
76998;BME280;65930;48.874;10.734;2023-04-24T12:50:40;95348.19;;;10.76;57.10
76998;BME280;65930;48.874;10.734;2023-04-24T12:53:11;95350.56;;;10.78;57.27
76998;BME280;65930;48.874;10.734;2023-04-24T12:55:41;95369.41;;;10.86;55.32
76998;BME280;65930;48.874;10.734;2023-04-24T12:58:08;95363.03;;;10.63;53.53
76998;BME280;65930;48.874;10.734;2023-04-24T13:00:36;95352.03;;;10.55;53.16
76998;BME280;65930;48.874;10.734;2023-04-24T13:03:06;95355.88;;;11.15;54.24
76998;BME280;65930;48.874;10.734;2023-04-24T13:05:34;95357.34;;;11.46;52.35
76998;BME280;65930;48.874;10.734;2023-04-24T13:08:04;95360.00;;;11.30;52.56
76998;BME280;65930;48.874;10.734;2023-04-24T13:10:32;95356.25;;;11.40;53.71